sensor_id;sensor_type;location;lat;lon;timestamp;P1;durP1;ratioP1;P2;durP2;ratioP2
64550;SDS011;50945;44.472;-123.352;2023-06-14T00:00:19;0.82;;;0.40;;
64550;SDS011;50945;44.472;-123.352;2023-06-14T00:02:46;0.93;;;0.50;;
64550;SDS011;50945;44.472;-123.352;2023-06-14T00:05:12;1.55;;;0.60;;
64550;SDS011;50945;44.472;-123.352;2023-06-14T00:10:09;0.30;;;0.30;;
64550;SDS011;50945;44.472;-123.352;2023-06-14T00:12:38;0.40;;;0.40;;
64550;SDS011;50945;44.472;-123.352;2023-06-14T00:15:05;0.98;;;0.63;;
64550;SDS011;50945;44.472;-123.352;2023-06-14T00:17:32;0.60;;;0.60;;
64550;SDS011;50945;44.472;-123.352;2023-06-14T00:19:59;0.90;;;0.60;;
64550;SDS011;50945;44.472;-123.352;2023-06-14T00:22:25;1.35;;;0.40;;
64550;SDS011;50945;44.472;-123.352;2023-06-14T00:24:53;0.47;;;0.30;;
64550;SDS011;50945;44.472;-123.352;2023-06-14T00:27:20;0.90;;;0.30;;
64550;SDS011;50945;44.472;-123.352;2023-06-14T00:29:46;1.00;;;0.35;;
64550;SDS011;50945;44.472;-123.352;2023-06-14T00:32:12;1.13;;;0.47;;
64550;SDS011;50945;44.472;-123.352;2023-06-14T00:34:38;0.95;;;0.35;;
64550;SDS011;50945;44.472;-123.352;2023-06-14T00:37:04;0.85;;;0.30;;
64550;SDS011;50945;44.472;-123.352;2023-06-14T00:39:31;0.57;;;0.45;;
64550;SDS011;50945;44.472;-123.352;2023-06-14T00:41:57;1.38;;;0.65;;
64550;SDS011;50945;44.472;-123.352;2023-06-14T00:44:24;0.25;;;0.25;;
64550;SDS011;50945;44.472;-123.352;2023-06-14T00:46:50;0.17;;;0.17;;
64550;SDS011;50945;44.472;-123.352;2023-06-14T00:49:17;2.25;;;0.52;;
64550;SDS011;50945;44.472;-123.352;2023-06-14T00:51:44;10.57;;;0.82;;
64550;SDS011;50945;44.472;-123.352;2023-06-14T00:56:37;1.45;;;0.50;;
64550;SDS011;50945;44.472;-123.352;2023-06-14T00:59:04;0.75;;;0.32;;
64550;SDS011;50945;44.472;-123.352;2023-06-14T01:01:30;2.28;;;0.50;;
64550;SDS011;50945;44.472;-123.352;2023-06-14T01:03:59;2.83;;;0.75;;
64550;SDS011;50945;44.472;-123.352;2023-06-14T01:12:13;1.48;;;0.32;;
64550;SDS011;50945;44.472;-123.352;2023-06-14T01:14:46;5.35;;;0.75;;
64550;SDS011;50945;44.472;-123.352;2023-06-14T01:17:15;4.22;;;0.65;;
64550;SDS011;50945;44.472;-123.352;2023-06-14T01:19:42;3.70;;;0.70;;
64550;SDS011;50945;44.472;-123.352;2023-06-14T01:22:09;4.60;;;0.63;;
64550;SDS011;50945;44.472;-123.352;2023-06-14T01:24:36;0.52;;;0.52;;
64550;SDS011;50945;44.472;-123.352;2023-06-14T01:27:04;1.23;;;1.10;;
64550;SDS011;50945;44.472;-123.352;2023-06-14T01:29:32;1.92;;;0.63;;
64550;SDS011;50945;44.472;-123.352;2023-06-14T01:32:01;0.85;;;0.85;;
64550;SDS011;50945;44.472;-123.352;2023-06-14T01:34:28;1.75;;;0.50;;
64550;SDS011;50945;44.472;-123.352;2023-06-14T01:36:55;0.32;;;0.32;;
64550;SDS011;50945;44.472;-123.352;2023-06-14T01:39:22;0.60;;;0.60;;
64550;SDS011;50945;44.472;-123.352;2023-06-14T01:41:49;0.40;;;0.40;;
64550;SDS011;50945;44.472;-123.352;2023-06-14T01:44:17;2.05;;;0.70;;
64550;SDS011;50945;44.472;-123.352;2023-06-14T01:46:45;0.68;;;0.60;;
64550;SDS011;50945;44.472;-123.352;2023-06-14T01:51:37;0.57;;;0.57;;
64550;SDS011;50945;44.472;-123.352;2023-06-14T01:54:03;0.50;;;0.32;;
64550;SDS011;50945;44.472;-123.352;2023-06-14T01:56:30;0.45;;;0.40;;
64550;SDS011;50945;44.472;-123.352;2023-06-14T01:58:57;0.40;;;0.40;;
64550;SDS011;50945;44.472;-123.352;2023-06-14T02:01:24;0.50;;;0.40;;
64550;SDS011;50945;44.472;-123.352;2023-06-14T02:06:16;1.48;;;0.30;;
64550;SDS011;50945;44.472;-123.352;2023-06-14T02:08:42;1.08;;;0.60;;
64550;SDS011;50945;44.472;-123.352;2023-06-14T02:11:08;1.88;;;0.47;;
64550;SDS011;50945;44.472;-123.352;2023-06-14T02:16:01;0.90;;;0.40;;
64550;SDS011;50945;44.472;-123.352;2023-06-14T02:18:27;0.65;;;0.40;;
64550;SDS011;50945;44.472;-123.352;2023-06-14T02:20:54;2.08;;;0.55;;
64550;SDS011;50945;44.472;-123.352;2023-06-14T02:23:20;0.28;;;0.28;;
64550;SDS011;50945;44.472;-123.352;2023-06-14T02:25:46;1.25;;;0.70;;
64550;SDS011;50945;44.472;-123.352;2023-06-14T02:28:12;0.73;;;0.40;;
64550;SDS011;50945;44.472;-123.352;2023-06-14T02:30:39;0.45;;;0.45;;
64550;SDS011;50945;44.472;-123.352;2023-06-14T02:33:06;0.90;;;0.50;;
64550;SDS011;50945;44.472;-123.352;2023-06-14T02:35:32;0.63;;;0.60;;
64550;SDS011;50945;44.472;-123.352;2023-06-14T02:37:58;0.40;;;0.40;;
64550;SDS011;50945;44.472;-123.352;2023-06-14T02:40:24;0.20;;;0.20;;
64550;SDS011;50945;44.472;-123.352;2023-06-14T02:42:50;1.13;;;0.47;;
64550;SDS011;50945;44.472;-123.352;2023-06-14T02:45:17;1.35;;;0.63;;
64550;SDS011;50945;44.472;-123.352;2023-06-14T02:47:43;0.47;;;0.47;;
64550;SDS011;50945;44.472;-123.352;2023-06-14T02:50:09;1.60;;;0.50;;
64550;SDS011;50945;44.472;-123.352;2023-06-14T02:52:35;1.45;;;0.55;;
64550;SDS011;50945;44.472;-123.352;2023-06-14T02:55:02;0.88;;;0.88;;
64550;SDS011;50945;44.472;-123.352;2023-06-14T02:57:28;0.60;;;0.60;;
64550;SDS011;50945;44.472;-123.352;2023-06-14T02:59:54;0.80;;;0.60;;
64550;SDS011;50945;44.472;-123.352;2023-06-14T03:02:20;0.50;;;0.50;;
64550;SDS011;50945;44.472;-123.352;2023-06-14T03:04:46;0.98;;;0.40;;
64550;SDS011;50945;44.472;-123.352;2023-06-14T03:07:13;1.40;;;0.80;;
64550;SDS011;50945;44.472;-123.352;2023-06-14T03:12:54;0.73;;;0.73;;
64550;SDS011;50945;44.472;-123.352;2023-06-14T03:15:20;0.70;;;0.47;;
64550;SDS011;50945;44.472;-123.352;2023-06-14T03:17:48;0.82;;;0.82;;
64550;SDS011;50945;44.472;-123.352;2023-06-14T03:20:16;1.92;;;0.80;;
64550;SDS011;50945;44.472;-123.352;2023-06-14T03:25:11;1.58;;;0.60;;
64550;SDS011;50945;44.472;-123.352;2023-06-14T03:27:38;1.20;;;0.70;;
64550;SDS011;50945;44.472;-123.352;2023-06-14T03:30:04;1.20;;;0.50;;
64550;SDS011;50945;44.472;-123.352;2023-06-14T03:32:33;2.50;;;0.73;;
64550;SDS011;50945;44.472;-123.352;2023-06-14T03:34:59;3.03;;;0.40;;
64550;SDS011;50945;44.472;-123.352;2023-06-14T03:37:25;2.83;;;0.70;;
64550;SDS011;50945;44.472;-123.352;2023-06-14T03:39:51;0.65;;;0.65;;
64550;SDS011;50945;44.472;-123.352;2023-06-14T03:42:17;2.83;;;0.75;;
64550;SDS011;50945;44.472;-123.352;2023-06-14T03:44:45;1.00;;;0.70;;
64550;SDS011;50945;44.472;-123.352;2023-06-14T03:47:11;1.27;;;0.80;;
64550;SDS011;50945;44.472;-123.352;2023-06-14T03:49:38;1.35;;;0.85;;
64550;SDS011;50945;44.472;-123.352;2023-06-14T03:52:04;0.68;;;0.60;;
64550;SDS011;50945;44.472;-123.352;2023-06-14T03:54:30;0.75;;;0.60;;
64550;SDS011;50945;44.472;-123.352;2023-06-14T03:56:58;1.48;;;0.60;;
64550;SDS011;50945;44.472;-123.352;2023-06-14T03:59:25;1.50;;;0.40;;
64550;SDS011;50945;44.472;-123.352;2023-06-14T04:01:53;1.52;;;0.85;;
64550;SDS011;50945;44.472;-123.352;2023-06-14T04:04:23;0.95;;;0.70;;
64550;SDS011;50945;44.472;-123.352;2023-06-14T04:06:54;1.00;;;0.45;;
64550;SDS011;50945;44.472;-123.352;2023-06-14T04:09:24;1.60;;;0.65;;
64550;SDS011;50945;44.472;-123.352;2023-06-14T04:11:51;0.60;;;0.40;;
64550;SDS011;50945;44.472;-123.352;2023-06-14T04:14:18;0.40;;;0.40;;
64550;SDS011;50945;44.472;-123.352;2023-06-14T04:16:46;2.33;;;0.70;;
64550;SDS011;50945;44.472;-123.352;2023-06-14T04:19:15;0.40;;;0.40;;
64550;SDS011;50945;44.472;-123.352;2023-06-14T04:21:41;0.70;;;0.70;;
64550;SDS011;50945;44.472;-123.352;2023-06-14T04:24:08;0.70;;;0.60;;
64550;SDS011;50945;44.472;-123.352;2023-06-14T04:26:44;0.68;;;0.60;;
64550;SDS011;50945;44.472;-123.352;2023-06-14T04:29:13;1.05;;;0.50;;
64550;SDS011;50945;44.472;-123.352;2023-06-14T04:31:41;1.02;;;0.60;;
64550;SDS011;50945;44.472;-123.352;2023-06-14T04:34:09;2.42;;;0.73;;
64550;SDS011;50945;44.472;-123.352;2023-06-14T04:36:41;0.40;;;0.40;;
64550;SDS011;50945;44.472;-123.352;2023-06-14T04:39:17;1.60;;;0.50;;
64550;SDS011;50945;44.472;-123.352;2023-06-14T04:41:44;0.63;;;0.60;;
64550;SDS011;50945;44.472;-123.352;2023-06-14T04:44:10;2.20;;;0.73;;
64550;SDS011;50945;44.472;-123.352;2023-06-14T04:46:38;2.58;;;0.60;;
64550;SDS011;50945;44.472;-123.352;2023-06-14T04:49:14;2.03;;;1.23;;
64550;SDS011;50945;44.472;-123.352;2023-06-14T04:51:41;1.27;;;0.73;;
64550;SDS011;50945;44.472;-123.352;2023-06-14T04:54:11;1.52;;;0.80;;
64550;SDS011;50945;44.472;-123.352;2023-06-14T04:56:41;1.10;;;0.73;;
64550;SDS011;50945;44.472;-123.352;2023-06-14T04:59:11;2.05;;;1.10;;
64550;SDS011;50945;44.472;-123.352;2023-06-14T05:01:38;2.78;;;0.90;;
64550;SDS011;50945;44.472;-123.352;2023-06-14T05:04:04;2.63;;;0.90;;
64550;SDS011;50945;44.472;-123.352;2023-06-14T05:06:30;3.55;;;1.00;;
64550;SDS011;50945;44.472;-123.352;2023-06-14T05:08:56;3.40;;;1.10;;
64550;SDS011;50945;44.472;-123.352;2023-06-14T05:11:22;3.05;;;0.93;;
64550;SDS011;50945;44.472;-123.352;2023-06-14T05:13:52;4.57;;;1.38;;
64550;SDS011;50945;44.472;-123.352;2023-06-14T05:16:18;4.00;;;1.10;;
64550;SDS011;50945;44.472;-123.352;2023-06-14T05:18:45;3.65;;;1.40;;
64550;SDS011;50945;44.472;-123.352;2023-06-14T05:21:12;6.95;;;1.88;;
64550;SDS011;50945;44.472;-123.352;2023-06-14T05:23:42;6.40;;;1.50;;
64550;SDS011;50945;44.472;-123.352;2023-06-14T05:26:10;7.05;;;2.13;;
64550;SDS011;50945;44.472;-123.352;2023-06-14T05:28:36;4.75;;;1.58;;
64550;SDS011;50945;44.472;-123.352;2023-06-14T05:31:02;6.07;;;1.08;;
64550;SDS011;50945;44.472;-123.352;2023-06-14T05:33:29;6.20;;;1.83;;
64550;SDS011;50945;44.472;-123.352;2023-06-14T05:35:55;7.53;;;2.05;;
64550;SDS011;50945;44.472;-123.352;2023-06-14T05:38:21;7.10;;;1.85;;
64550;SDS011;50945;44.472;-123.352;2023-06-14T05:40:47;6.38;;;1.60;;
64550;SDS011;50945;44.472;-123.352;2023-06-14T05:43:13;9.80;;;1.40;;
64550;SDS011;50945;44.472;-123.352;2023-06-14T05:45:39;5.97;;;1.98;;
64550;SDS011;50945;44.472;-123.352;2023-06-14T05:48:06;6.70;;;1.75;;
64550;SDS011;50945;44.472;-123.352;2023-06-14T05:50:32;10.20;;;1.85;;
64550;SDS011;50945;44.472;-123.352;2023-06-14T05:55:24;5.32;;;1.23;;
64550;SDS011;50945;44.472;-123.352;2023-06-14T05:57:50;11.15;;;1.98;;
64550;SDS011;50945;44.472;-123.352;2023-06-14T06:00:17;5.90;;;1.48;;
64550;SDS011;50945;44.472;-123.352;2023-06-14T06:02:45;4.18;;;1.58;;
64550;SDS011;50945;44.472;-123.352;2023-06-14T06:05:13;6.35;;;1.45;;
64550;SDS011;50945;44.472;-123.352;2023-06-14T06:07:40;5.40;;;1.23;;
64550;SDS011;50945;44.472;-123.352;2023-06-14T06:10:09;7.43;;;1.50;;
64550;SDS011;50945;44.472;-123.352;2023-06-14T06:12:36;8.70;;;1.95;;
64550;SDS011;50945;44.472;-123.352;2023-06-14T06:15:03;4.10;;;1.20;;
64550;SDS011;50945;44.472;-123.352;2023-06-14T06:17:30;5.88;;;1.92;;
64550;SDS011;50945;44.472;-123.352;2023-06-14T06:19:56;7.80;;;2.00;;
64550;SDS011;50945;44.472;-123.352;2023-06-14T06:22:22;6.30;;;1.60;;
64550;SDS011;50945;44.472;-123.352;2023-06-14T06:24:48;8.15;;;2.00;;
64550;SDS011;50945;44.472;-123.352;2023-06-14T06:27:15;7.97;;;2.85;;
64550;SDS011;50945;44.472;-123.352;2023-06-14T06:29:41;7.32;;;1.98;;
64550;SDS011;50945;44.472;-123.352;2023-06-14T06:32:09;10.95;;;2.17;;
64550;SDS011;50945;44.472;-123.352;2023-06-14T06:34:35;8.55;;;2.17;;
64550;SDS011;50945;44.472;-123.352;2023-06-14T06:37:02;5.85;;;1.65;;
64550;SDS011;50945;44.472;-123.352;2023-06-14T06:39:28;11.25;;;1.92;;
64550;SDS011;50945;44.472;-123.352;2023-06-14T06:41:54;7.10;;;2.15;;
64550;SDS011;50945;44.472;-123.352;2023-06-14T06:44:21;9.90;;;2.35;;
64550;SDS011;50945;44.472;-123.352;2023-06-14T06:46:47;6.30;;;1.50;;
64550;SDS011;50945;44.472;-123.352;2023-06-14T06:49:13;5.57;;;1.73;;
64550;SDS011;50945;44.472;-123.352;2023-06-14T06:51:43;8.90;;;1.63;;
64550;SDS011;50945;44.472;-123.352;2023-06-14T06:54:24;8.18;;;2.40;;
64550;SDS011;50945;44.472;-123.352;2023-06-14T06:56:50;6.68;;;1.67;;
64550;SDS011;50945;44.472;-123.352;2023-06-14T06:59:16;6.00;;;1.92;;
64550;SDS011;50945;44.472;-123.352;2023-06-14T07:01:43;8.73;;;1.73;;
64550;SDS011;50945;44.472;-123.352;2023-06-14T07:04:09;7.20;;;2.15;;
64550;SDS011;50945;44.472;-123.352;2023-06-14T07:06:35;8.70;;;2.05;;
64550;SDS011;50945;44.472;-123.352;2023-06-14T07:09:02;8.40;;;2.03;;
64550;SDS011;50945;44.472;-123.352;2023-06-14T07:11:30;8.57;;;1.73;;
64550;SDS011;50945;44.472;-123.352;2023-06-14T07:13:56;7.03;;;1.92;;
64550;SDS011;50945;44.472;-123.352;2023-06-14T07:16:22;5.75;;;1.60;;
64550;SDS011;50945;44.472;-123.352;2023-06-14T07:18:49;8.45;;;2.10;;
64550;SDS011;50945;44.472;-123.352;2023-06-14T07:21:15;12.18;;;2.53;;
64550;SDS011;50945;44.472;-123.352;2023-06-14T07:23:41;10.00;;;1.92;;
64550;SDS011;50945;44.472;-123.352;2023-06-14T07:26:07;10.98;;;2.10;;
64550;SDS011;50945;44.472;-123.352;2023-06-14T07:28:33;9.45;;;2.55;;
64550;SDS011;50945;44.472;-123.352;2023-06-14T07:30:59;11.68;;;3.63;;
64550;SDS011;50945;44.472;-123.352;2023-06-14T07:33:26;7.25;;;2.25;;
64550;SDS011;50945;44.472;-123.352;2023-06-14T07:35:52;13.07;;;2.78;;
64550;SDS011;50945;44.472;-123.352;2023-06-14T07:38:18;9.35;;;2.60;;
64550;SDS011;50945;44.472;-123.352;2023-06-14T07:40:44;13.73;;;2.67;;
64550;SDS011;50945;44.472;-123.352;2023-06-14T07:43:10;10.75;;;2.40;;
64550;SDS011;50945;44.472;-123.352;2023-06-14T07:45:37;12.02;;;2.97;;
64550;SDS011;50945;44.472;-123.352;2023-06-14T07:48:03;10.30;;;2.17;;
64550;SDS011;50945;44.472;-123.352;2023-06-14T07:50:30;9.68;;;2.47;;
64550;SDS011;50945;44.472;-123.352;2023-06-14T07:52:56;10.30;;;2.40;;
64550;SDS011;50945;44.472;-123.352;2023-06-14T07:55:22;8.43;;;2.28;;
64550;SDS011;50945;44.472;-123.352;2023-06-14T07:57:50;11.18;;;2.60;;
64550;SDS011;50945;44.472;-123.352;2023-06-14T08:00:16;9.32;;;2.13;;
64550;SDS011;50945;44.472;-123.352;2023-06-14T08:02:44;8.63;;;2.58;;
64550;SDS011;50945;44.472;-123.352;2023-06-14T08:05:11;8.50;;;2.40;;
64550;SDS011;50945;44.472;-123.352;2023-06-14T08:10:07;8.82;;;2.00;;
64550;SDS011;50945;44.472;-123.352;2023-06-14T08:12:34;13.88;;;2.80;;
64550;SDS011;50945;44.472;-123.352;2023-06-14T08:15:00;7.15;;;2.40;;
64550;SDS011;50945;44.472;-123.352;2023-06-14T08:17:26;8.05;;;2.03;;
64550;SDS011;50945;44.472;-123.352;2023-06-14T08:19:52;9.60;;;1.90;;
64550;SDS011;50945;44.472;-123.352;2023-06-14T08:22:22;9.77;;;2.83;;
64550;SDS011;50945;44.472;-123.352;2023-06-14T08:24:53;7.95;;;2.00;;
64550;SDS011;50945;44.472;-123.352;2023-06-14T08:27:20;11.60;;;2.20;;
64550;SDS011;50945;44.472;-123.352;2023-06-14T08:29:46;10.98;;;2.40;;
64550;SDS011;50945;44.472;-123.352;2023-06-14T08:32:12;8.80;;;2.00;;
64550;SDS011;50945;44.472;-123.352;2023-06-14T08:34:38;6.50;;;2.20;;
64550;SDS011;50945;44.472;-123.352;2023-06-14T08:37:04;9.77;;;2.00;;
64550;SDS011;50945;44.472;-123.352;2023-06-14T08:39:31;11.85;;;2.83;;
64550;SDS011;50945;44.472;-123.352;2023-06-14T08:41:58;13.68;;;3.15;;
64550;SDS011;50945;44.472;-123.352;2023-06-14T08:44:26;8.30;;;1.98;;
64550;SDS011;50945;44.472;-123.352;2023-06-14T08:46:53;13.50;;;2.40;;
64550;SDS011;50945;44.472;-123.352;2023-06-14T08:49:22;10.30;;;2.70;;
64550;SDS011;50945;44.472;-123.352;2023-06-14T08:51:52;14.77;;;2.78;;
64550;SDS011;50945;44.472;-123.352;2023-06-14T08:54:24;13.07;;;2.45;;
64550;SDS011;50945;44.472;-123.352;2023-06-14T08:56:55;9.38;;;2.40;;
64550;SDS011;50945;44.472;-123.352;2023-06-14T08:59:25;8.85;;;2.28;;
64550;SDS011;50945;44.472;-123.352;2023-06-14T09:01:52;7.10;;;2.30;;
64550;SDS011;50945;44.472;-123.352;2023-06-14T09:04:22;9.43;;;2.08;;
64550;SDS011;50945;44.472;-123.352;2023-06-14T09:06:55;10.90;;;2.45;;
64550;SDS011;50945;44.472;-123.352;2023-06-14T09:11:53;9.75;;;2.30;;
64550;SDS011;50945;44.472;-123.352;2023-06-14T09:14:23;11.38;;;2.50;;
64550;SDS011;50945;44.472;-123.352;2023-06-14T09:16:54;11.00;;;2.33;;
64550;SDS011;50945;44.472;-123.352;2023-06-14T09:19:23;7.88;;;2.08;;
64550;SDS011;50945;44.472;-123.352;2023-06-14T09:21:50;9.13;;;2.30;;
64550;SDS011;50945;44.472;-123.352;2023-06-14T09:24:18;10.05;;;2.17;;
64550;SDS011;50945;44.472;-123.352;2023-06-14T09:29:16;5.45;;;2.00;;
64550;SDS011;50945;44.472;-123.352;2023-06-14T09:31:45;4.97;;;2.00;;
64550;SDS011;50945;44.472;-123.352;2023-06-14T09:34:12;7.88;;;2.00;;
64550;SDS011;50945;44.472;-123.352;2023-06-14T09:36:39;6.72;;;1.92;;
64550;SDS011;50945;44.472;-123.352;2023-06-14T09:39:09;12.35;;;2.13;;
64550;SDS011;50945;44.472;-123.352;2023-06-14T09:41:36;9.30;;;2.55;;
64550;SDS011;50945;44.472;-123.352;2023-06-14T09:44:05;11.80;;;2.60;;
64550;SDS011;50945;44.472;-123.352;2023-06-14T09:46:33;11.90;;;2.53;;
64550;SDS011;50945;44.472;-123.352;2023-06-14T09:49:01;7.65;;;2.55;;
64550;SDS011;50945;44.472;-123.352;2023-06-14T09:51:28;10.80;;;2.97;;
64550;SDS011;50945;44.472;-123.352;2023-06-14T09:54:01;11.95;;;2.58;;
64550;SDS011;50945;44.472;-123.352;2023-06-14T09:56:34;12.38;;;2.38;;
64550;SDS011;50945;44.472;-123.352;2023-06-14T09:59:03;7.43;;;2.15;;
64550;SDS011;50945;44.472;-123.352;2023-06-14T10:01:32;10.45;;;3.03;;
64550;SDS011;50945;44.472;-123.352;2023-06-14T10:04:09;12.05;;;2.38;;
64550;SDS011;50945;44.472;-123.352;2023-06-14T10:06:36;14.85;;;3.20;;
64550;SDS011;50945;44.472;-123.352;2023-06-14T10:09:04;10.60;;;2.80;;
64550;SDS011;50945;44.472;-123.352;2023-06-14T10:11:34;10.50;;;2.40;;
64550;SDS011;50945;44.472;-123.352;2023-06-14T10:14:01;11.32;;;2.75;;
64550;SDS011;50945;44.472;-123.352;2023-06-14T10:16:32;15.02;;;2.53;;
64550;SDS011;50945;44.472;-123.352;2023-06-14T10:19:24;14.10;;;2.55;;
64550;SDS011;50945;44.472;-123.352;2023-06-14T10:24:40;12.75;;;3.15;;
64550;SDS011;50945;44.472;-123.352;2023-06-14T10:27:09;11.95;;;3.13;;
64550;SDS011;50945;44.472;-123.352;2023-06-14T10:32:28;9.35;;;2.35;;
64550;SDS011;50945;44.472;-123.352;2023-06-14T10:34:55;16.40;;;2.85;;
64550;SDS011;50945;44.472;-123.352;2023-06-14T10:37:41;13.10;;;4.05;;
64550;SDS011;50945;44.472;-123.352;2023-06-14T10:40:07;11.48;;;2.50;;
64550;SDS011;50945;44.472;-123.352;2023-06-14T10:42:34;15.13;;;3.00;;
64550;SDS011;50945;44.472;-123.352;2023-06-14T10:45:00;13.45;;;2.83;;
64550;SDS011;50945;44.472;-123.352;2023-06-14T10:52:42;13.65;;;2.30;;
64550;SDS011;50945;44.472;-123.352;2023-06-14T10:57:58;6.72;;;2.40;;
64550;SDS011;50945;44.472;-123.352;2023-06-14T11:00:25;9.82;;;3.15;;
64550;SDS011;50945;44.472;-123.352;2023-06-14T11:10:59;14.60;;;3.00;;
64550;SDS011;50945;44.472;-123.352;2023-06-14T11:13:26;8.18;;;2.58;;
64550;SDS011;50945;44.472;-123.352;2023-06-14T11:15:53;12.68;;;3.03;;
64550;SDS011;50945;44.472;-123.352;2023-06-14T11:18:21;12.63;;;3.08;;
64550;SDS011;50945;44.472;-123.352;2023-06-14T11:20:52;12.30;;;2.33;;
64550;SDS011;50945;44.472;-123.352;2023-06-14T11:23:19;10.55;;;2.90;;
64550;SDS011;50945;44.472;-123.352;2023-06-14T11:25:52;13.35;;;2.90;;
64550;SDS011;50945;44.472;-123.352;2023-06-14T11:28:19;8.93;;;2.38;;
64550;SDS011;50945;44.472;-123.352;2023-06-14T11:30:47;12.90;;;2.88;;
64550;SDS011;50945;44.472;-123.352;2023-06-14T11:33:18;11.05;;;2.70;;
64550;SDS011;50945;44.472;-123.352;2023-06-14T11:35:44;7.80;;;2.72;;
64550;SDS011;50945;44.472;-123.352;2023-06-14T11:40:37;6.20;;;2.10;;
64550;SDS011;50945;44.472;-123.352;2023-06-14T11:43:04;9.32;;;2.30;;
64550;SDS011;50945;44.472;-123.352;2023-06-14T11:45:30;13.43;;;3.45;;
64550;SDS011;50945;44.472;-123.352;2023-06-14T11:47:58;8.10;;;2.38;;
64550;SDS011;50945;44.472;-123.352;2023-06-14T11:50:25;12.20;;;2.38;;
64550;SDS011;50945;44.472;-123.352;2023-06-14T11:52:52;10.80;;;2.20;;
64550;SDS011;50945;44.472;-123.352;2023-06-14T11:55:22;11.95;;;3.15;;
64550;SDS011;50945;44.472;-123.352;2023-06-14T11:57:49;12.38;;;2.50;;
64550;SDS011;50945;44.472;-123.352;2023-06-14T12:00:16;13.68;;;2.67;;
64550;SDS011;50945;44.472;-123.352;2023-06-14T12:02:51;8.20;;;2.72;;
64550;SDS011;50945;44.472;-123.352;2023-06-14T12:05:21;8.85;;;2.90;;
64550;SDS011;50945;44.472;-123.352;2023-06-14T12:07:48;8.25;;;2.60;;
64550;SDS011;50945;44.472;-123.352;2023-06-14T12:10:16;13.00;;;2.53;;
64550;SDS011;50945;44.472;-123.352;2023-06-14T12:12:42;13.40;;;4.10;;
64550;SDS011;50945;44.472;-123.352;2023-06-14T12:15:09;10.02;;;2.35;;
64550;SDS011;50945;44.472;-123.352;2023-06-14T12:17:39;11.98;;;2.85;;
64550;SDS011;50945;44.472;-123.352;2023-06-14T12:20:09;9.05;;;2.38;;
64550;SDS011;50945;44.472;-123.352;2023-06-14T12:22:36;9.68;;;2.72;;
64550;SDS011;50945;44.472;-123.352;2023-06-14T12:27:29;10.20;;;2.25;;
64550;SDS011;50945;44.472;-123.352;2023-06-14T12:29:59;11.00;;;3.35;;
64550;SDS011;50945;44.472;-123.352;2023-06-14T12:32:27;8.48;;;2.15;;
64550;SDS011;50945;44.472;-123.352;2023-06-14T12:34:54;13.88;;;2.80;;
64550;SDS011;50945;44.472;-123.352;2023-06-14T12:37:20;11.32;;;1.80;;
64550;SDS011;50945;44.472;-123.352;2023-06-14T12:39:46;7.38;;;2.35;;
64550;SDS011;50945;44.472;-123.352;2023-06-14T12:42:13;9.93;;;2.42;;
64550;SDS011;50945;44.472;-123.352;2023-06-14T12:44:40;9.38;;;2.60;;
64550;SDS011;50945;44.472;-123.352;2023-06-14T12:47:07;9.30;;;2.38;;
64550;SDS011;50945;44.472;-123.352;2023-06-14T12:49:34;9.30;;;2.08;;
64550;SDS011;50945;44.472;-123.352;2023-06-14T12:52:00;11.25;;;2.65;;
64550;SDS011;50945;44.472;-123.352;2023-06-14T12:54:26;9.60;;;2.60;;
64550;SDS011;50945;44.472;-123.352;2023-06-14T12:56:53;13.30;;;2.55;;
64550;SDS011;50945;44.472;-123.352;2023-06-14T12:59:20;8.75;;;2.22;;
64550;SDS011;50945;44.472;-123.352;2023-06-14T13:01:46;9.43;;;2.33;;
64550;SDS011;50945;44.472;-123.352;2023-06-14T13:04:15;11.93;;;3.15;;
64550;SDS011;50945;44.472;-123.352;2023-06-14T13:06:41;4.55;;;2.40;;
64550;SDS011;50945;44.472;-123.352;2023-06-14T13:09:08;8.95;;;2.17;;
64550;SDS011;50945;44.472;-123.352;2023-06-14T13:11:34;9.52;;;2.63;;
64550;SDS011;50945;44.472;-123.352;2023-06-14T13:14:01;9.15;;;2.30;;
64550;SDS011;50945;44.472;-123.352;2023-06-14T13:16:27;10.05;;;2.65;;
64550;SDS011;50945;44.472;-123.352;2023-06-14T13:18:53;10.27;;;2.90;;
64550;SDS011;50945;44.472;-123.352;2023-06-14T13:21:19;5.70;;;1.90;;
64550;SDS011;50945;44.472;-123.352;2023-06-14T13:23:45;15.45;;;2.42;;
64550;SDS011;50945;44.472;-123.352;2023-06-14T13:26:11;10.57;;;2.50;;
64550;SDS011;50945;44.472;-123.352;2023-06-14T13:28:37;6.28;;;2.22;;
64550;SDS011;50945;44.472;-123.352;2023-06-14T13:31:03;8.23;;;2.20;;
64550;SDS011;50945;44.472;-123.352;2023-06-14T13:33:30;11.75;;;3.13;;
64550;SDS011;50945;44.472;-123.352;2023-06-14T13:35:57;10.05;;;2.45;;
64550;SDS011;50945;44.472;-123.352;2023-06-14T13:38:23;9.20;;;2.55;;
64550;SDS011;50945;44.472;-123.352;2023-06-14T13:40:49;7.50;;;2.15;;
64550;SDS011;50945;44.472;-123.352;2023-06-14T13:43:15;8.65;;;2.50;;
64550;SDS011;50945;44.472;-123.352;2023-06-14T13:45:41;8.77;;;2.15;;
64550;SDS011;50945;44.472;-123.352;2023-06-14T13:48:08;10.32;;;2.33;;
64550;SDS011;50945;44.472;-123.352;2023-06-14T13:50:34;7.05;;;2.28;;
64550;SDS011;50945;44.472;-123.352;2023-06-14T13:53:00;12.77;;;2.70;;
64550;SDS011;50945;44.472;-123.352;2023-06-14T13:55:27;10.15;;;2.97;;
64550;SDS011;50945;44.472;-123.352;2023-06-14T13:57:53;9.88;;;2.33;;
64550;SDS011;50945;44.472;-123.352;2023-06-14T14:00:19;12.52;;;3.20;;
64550;SDS011;50945;44.472;-123.352;2023-06-14T14:02:45;4.53;;;1.85;;
64550;SDS011;50945;44.472;-123.352;2023-06-14T14:05:11;7.25;;;2.40;;
64550;SDS011;50945;44.472;-123.352;2023-06-14T14:07:38;6.65;;;2.38;;
64550;SDS011;50945;44.472;-123.352;2023-06-14T14:10:04;10.85;;;2.63;;
64550;SDS011;50945;44.472;-123.352;2023-06-14T14:14:57;6.28;;;1.77;;
64550;SDS011;50945;44.472;-123.352;2023-06-14T14:17:23;5.72;;;1.98;;
64550;SDS011;50945;44.472;-123.352;2023-06-14T14:19:49;11.88;;;2.90;;
64550;SDS011;50945;44.472;-123.352;2023-06-14T14:22:15;10.40;;;2.95;;
64550;SDS011;50945;44.472;-123.352;2023-06-14T14:24:41;7.40;;;2.70;;
64550;SDS011;50945;44.472;-123.352;2023-06-14T14:27:08;9.15;;;2.13;;
64550;SDS011;50945;44.472;-123.352;2023-06-14T14:29:34;10.23;;;2.42;;
64550;SDS011;50945;44.472;-123.352;2023-06-14T14:36:53;10.20;;;2.10;;
64550;SDS011;50945;44.472;-123.352;2023-06-14T14:39:19;14.25;;;2.97;;
64550;SDS011;50945;44.472;-123.352;2023-06-14T14:41:46;5.70;;;2.13;;
64550;SDS011;50945;44.472;-123.352;2023-06-14T14:44:12;5.55;;;2.63;;
64550;SDS011;50945;44.472;-123.352;2023-06-14T14:46:38;6.30;;;2.10;;
64550;SDS011;50945;44.472;-123.352;2023-06-14T14:49:04;17.75;;;2.80;;
64550;SDS011;50945;44.472;-123.352;2023-06-14T14:51:30;8.43;;;2.70;;
64550;SDS011;50945;44.472;-123.352;2023-06-14T14:53:56;3.90;;;2.08;;
64550;SDS011;50945;44.472;-123.352;2023-06-14T14:56:23;9.85;;;3.05;;
64550;SDS011;50945;44.472;-123.352;2023-06-14T14:58:51;10.00;;;3.25;;
64550;SDS011;50945;44.472;-123.352;2023-06-14T15:01:17;12.23;;;2.70;;
64550;SDS011;50945;44.472;-123.352;2023-06-14T15:03:43;12.43;;;2.40;;
64550;SDS011;50945;44.472;-123.352;2023-06-14T15:06:10;9.32;;;2.40;;
64550;SDS011;50945;44.472;-123.352;2023-06-14T15:08:36;11.65;;;2.70;;
64550;SDS011;50945;44.472;-123.352;2023-06-14T15:11:02;13.48;;;2.40;;
64550;SDS011;50945;44.472;-123.352;2023-06-14T15:13:28;12.48;;;2.55;;